createdAt,value
2018-05-15T00:00:05.691Z,96775.09
2018-05-15T00:02:34.520Z,96782.30
2018-05-15T00:05:04.438Z,96776.55
2018-05-15T00:07:33.189Z,96775.41
2018-05-15T00:10:01.971Z,96766.50
2018-05-15T00:12:30.791Z,96770.33
2018-05-15T00:14:59.799Z,96769.33
2018-05-15T00:17:28.668Z,96756.06
2018-05-15T00:19:57.413Z,96752.39
2018-05-15T00:22:27.004Z,96746.39
2018-05-15T00:24:55.736Z,96745.17
2018-05-15T00:27:24.531Z,96737.34
2018-05-15T00:29:53.275Z,96734.73
2018-05-15T00:32:22.050Z,96728.48
2018-05-15T00:34:51.768Z,96732.93
2018-05-15T00:37:21.009Z,96731.16
2018-05-15T00:39:50.213Z,96732.83
2018-05-15T00:42:21.108Z,96731.55
2018-05-15T00:44:49.848Z,96725.67
2018-05-15T00:47:18.675Z,96718.90
2018-05-15T00:49:47.460Z,96715.47
2018-05-15T00:52:16.275Z,96710.02
2018-05-15T00:54:45.012Z,96706.16
2018-05-15T00:57:14.171Z,96703.77
2018-05-15T00:59:43.726Z,96699.72
2018-05-15T01:02:12.505Z,96698.01
2018-05-15T01:04:42.529Z,96688.80
2018-05-15T01:07:12.397Z,96698.24
2018-05-15T01:09:41.948Z,96687.73
2018-05-15T01:12:12.621Z,96686.32
2018-05-15T01:14:41.952Z,96681.47
2018-05-15T01:17:14.862Z,96685.03
2018-05-15T01:19:43.630Z,96681.16
2018-05-15T01:22:13.746Z,96681.02
2018-05-15T01:24:42.518Z,96676.49
2018-05-15T01:27:13.870Z,96668.09
2018-05-15T01:29:42.644Z,96673.08
2018-05-15T01:32:12.093Z,96673.44
2018-05-15T01:34:40.849Z,96664.54
2018-05-15T01:37:09.606Z,96666.14
2018-05-15T01:39:38.443Z,96656.08
2018-05-15T01:42:07.178Z,96658.72
2018-05-15T01:44:36.365Z,96657.30
2018-05-15T01:47:05.172Z,96652.56
2018-05-15T01:49:34.061Z,96652.05
2018-05-15T01:52:03.705Z,96648.08
2018-05-15T01:54:32.746Z,96641.98
2018-05-15T01:57:02.276Z,96648.69
2018-05-15T01:59:31.096Z,96639.09
2018-05-15T02:01:59.865Z,96639.47
2018-05-15T02:04:28.622Z,96634.31
2018-05-15T02:06:57.372Z,96633.94
2018-05-15T02:09:26.219Z,96626.31
2018-05-15T02:11:55.117Z,96617.08
2018-05-15T02:14:23.888Z,96624.04
2018-05-15T02:16:52.623Z,96615.70
2018-05-15T02:19:21.462Z,96611.55
2018-05-15T02:21:50.249Z,96612.91
2018-05-15T02:24:18.989Z,96618.23
2018-05-15T02:26:48.520Z,96616.87
2018-05-15T02:29:17.291Z,96614.33
2018-05-15T02:31:46.821Z,96616.56
2018-05-15T02:34:15.581Z,96614.46
2018-05-15T02:36:44.494Z,96613.23
2018-05-15T02:39:13.490Z,96615.27
2018-05-15T02:41:43.111Z,96607.15
2018-05-15T02:44:12.422Z,96609.95
2018-05-15T02:46:41.455Z,96606.91
2018-05-15T02:49:10.200Z,96602.47
2018-05-15T02:51:38.990Z,96601.89
2018-05-15T02:54:09.173Z,96599.72
2018-05-15T02:56:37.955Z,96597.55
2018-05-15T02:59:07.545Z,96592.88
2018-05-15T03:01:36.325Z,96593.89
2018-05-15T03:04:05.078Z,96580.88
2018-05-15T03:06:34.593Z,96578.47
2018-05-15T03:09:03.371Z,96578.87
2018-05-15T03:11:32.180Z,96566.80
2018-05-15T03:14:01.589Z,96572.95
2018-05-15T03:16:30.421Z,96572.62
2018-05-15T03:18:59.932Z,96570.08
2018-05-15T03:21:28.805Z,96577.42
2018-05-15T03:23:57.524Z,96568.89
2018-05-15T03:26:26.300Z,96565.67
2018-05-15T03:28:55.113Z,96566.55
2018-05-15T03:31:23.836Z,96566.31
2018-05-15T03:33:52.651Z,96560.84
2018-05-15T03:36:21.395Z,96567.52
2018-05-15T03:38:50.108Z,96571.37
2018-05-15T03:41:18.867Z,96570.77
2018-05-15T03:43:47.694Z,96579.20
2018-05-15T03:46:16.399Z,96578.16
2018-05-15T03:48:45.911Z,96584.77
2018-05-15T03:51:14.684Z,96592.31
2018-05-15T03:53:43.468Z,96600.16
2018-05-15T03:56:12.944Z,96596.47
2018-05-15T03:58:41.745Z,96598.41
2018-05-15T04:01:22.245Z,96597.09
2018-05-15T04:04:03.937Z,96592.97
2018-05-15T04:09:31.930Z,96595.44
2018-05-15T04:12:00.671Z,96589.58
2018-05-15T04:14:29.393Z,96593.76
2018-05-15T04:16:58.908Z,96579.89
2018-05-15T04:19:27.741Z,96588.34
2018-05-15T04:21:56.506Z,96574.98
2018-05-15T04:24:25.357Z,96586.22
2018-05-15T04:26:54.172Z,96578.30
2018-05-15T04:29:22.921Z,96580.13
2018-05-15T04:31:51.670Z,96581.02
2018-05-15T04:34:20.428Z,96586.80
2018-05-15T04:36:49.932Z,96590.16
2018-05-15T04:39:19.458Z,96587.08
2018-05-15T04:41:48.192Z,96588.45
2018-05-15T04:44:16.951Z,96587.61
2018-05-15T04:46:45.761Z,96592.97
2018-05-15T04:49:14.717Z,96588.68
2018-05-15T04:51:43.416Z,96579.56
2018-05-15T04:54:12.186Z,96583.84
2018-05-15T04:56:40.973Z,96580.55
2018-05-15T04:59:09.677Z,96584.17
2018-05-15T05:01:38.446Z,96582.11
2018-05-15T05:04:07.236Z,96579.97
2018-05-15T05:06:36.489Z,96584.33
2018-05-15T05:09:05.284Z,96579.72
2018-05-15T05:11:34.068Z,96576.92
2018-05-15T05:14:02.816Z,96580.75
2018-05-15T05:16:32.317Z,96580.70
2018-05-15T05:19:01.053Z,96579.75
2018-05-15T05:21:29.857Z,96578.00
2018-05-15T05:23:58.649Z,96587.98
2018-05-15T05:26:27.375Z,96581.84
2018-05-15T05:28:56.157Z,96580.13
2018-05-15T05:31:24.907Z,96583.47
2018-05-15T05:33:54.314Z,96585.44
2018-05-15T05:36:23.118Z,96584.85
2018-05-15T05:38:54.113Z,96585.42
2018-05-15T05:41:22.863Z,96579.95
2018-05-15T05:43:51.600Z,96581.75
2018-05-15T05:46:20.398Z,96588.25
2018-05-15T05:48:49.160Z,96585.13
2018-05-15T05:51:17.981Z,96586.23
2018-05-15T05:53:47.248Z,96590.73
2018-05-15T05:56:16.079Z,96591.34
2018-05-15T05:58:44.837Z,96592.60
2018-05-15T06:01:13.889Z,96600.02
2018-05-15T06:03:44.445Z,96598.97
2018-05-15T06:06:13.846Z,96600.53
2018-05-15T06:08:42.609Z,96605.66
2018-05-15T06:11:11.364Z,96616.88
2018-05-15T06:13:40.150Z,96621.98
2018-05-15T06:16:08.902Z,96623.75
2018-05-15T06:18:37.647Z,96630.15
2018-05-15T06:21:06.395Z,96632.09
2018-05-15T06:23:35.156Z,96629.05
2018-05-15T06:26:04.135Z,96630.08
2018-05-15T06:28:33.020Z,96623.94
2018-05-15T06:31:02.579Z,96633.77
2018-05-15T06:33:31.335Z,96635.17
2018-05-15T06:36:00.138Z,96636.80
2018-05-15T06:38:29.687Z,96637.00
2018-05-15T06:40:58.580Z,96645.69
2018-05-15T06:43:27.416Z,96642.84
2018-05-15T06:45:56.165Z,96640.72
2018-05-15T06:48:24.884Z,96641.85
2018-05-15T06:50:53.658Z,96652.32
2018-05-15T06:53:23.302Z,96645.81
2018-05-15T06:55:52.010Z,96647.23
2018-05-15T06:58:21.161Z,96655.28
2018-05-15T07:00:50.792Z,96654.48
2018-05-15T07:03:19.549Z,96654.16
2018-05-15T07:05:49.096Z,96664.70
2018-05-15T07:08:18.009Z,96672.23
2018-05-15T07:10:46.769Z,96672.46
2018-05-15T07:13:15.554Z,96668.34
2018-05-15T07:15:44.489Z,96674.58
2018-05-15T07:18:14.376Z,96673.93
2018-05-15T07:20:43.202Z,96668.01
2018-05-15T07:23:11.944Z,96676.66
2018-05-15T07:25:40.786Z,96669.92
2018-05-15T07:28:09.641Z,96675.34
2018-05-15T07:30:38.417Z,96676.65
2018-05-15T07:33:07.283Z,96680.81
2018-05-15T07:35:35.979Z,96681.56
2018-05-15T07:38:04.697Z,96686.30
2018-05-15T07:40:33.508Z,96688.64
2018-05-15T07:43:02.269Z,96687.09
2018-05-15T07:45:31.033Z,96691.70
2018-05-15T07:47:59.930Z,96689.30
2018-05-15T07:50:29.491Z,96693.33
2018-05-15T07:52:58.284Z,96693.14
2018-05-15T07:55:27.055Z,96694.91
2018-05-15T07:57:55.806Z,96693.33
2018-05-15T08:00:24.642Z,96703.91
2018-05-15T08:02:53.399Z,96700.09
2018-05-15T08:05:22.212Z,96695.63
2018-05-15T08:07:50.955Z,96694.81
2018-05-15T08:10:20.603Z,96698.91
2018-05-15T08:12:49.450Z,96702.96
2018-05-15T08:15:18.241Z,96712.01
2018-05-15T08:17:47.776Z,96712.77
2018-05-15T08:20:16.557Z,96718.59
2018-05-15T08:22:45.297Z,96715.25
2018-05-15T08:25:15.114Z,96715.39
2018-05-15T08:27:44.961Z,96714.13
2018-05-15T08:30:13.736Z,96717.13
2018-05-15T08:32:42.535Z,96721.67
2018-05-15T08:35:11.405Z,96718.17
2018-05-15T08:37:40.179Z,96719.90
2018-05-15T08:40:09.006Z,96725.38
2018-05-15T08:42:37.801Z,96728.11
2018-05-15T08:45:06.634Z,96727.55
2018-05-15T08:47:35.430Z,96732.65
2018-05-15T08:50:04.229Z,96737.28
2018-05-15T08:52:33.495Z,96732.13
2018-05-15T08:55:02.242Z,96747.41
2018-05-15T08:57:32.439Z,96741.93
2018-05-15T09:00:01.237Z,96749.92
2018-05-15T09:02:29.968Z,96751.08
2018-05-15T09:04:58.726Z,96745.39
2018-05-15T09:07:27.489Z,96752.38
2018-05-15T09:09:56.256Z,96753.30
2018-05-15T09:12:25.026Z,96758.42
2018-05-15T09:14:53.771Z,96762.18
2018-05-15T09:17:22.528Z,96764.83
2018-05-15T09:19:51.296Z,96770.11
2018-05-15T09:22:20.100Z,96770.53
2018-05-15T09:24:49.364Z,96773.98
2018-05-15T09:27:18.202Z,96773.26
2018-05-15T09:29:46.937Z,96778.77
2018-05-15T09:32:15.711Z,96782.02
2018-05-15T09:34:45.564Z,96786.94
2018-05-15T09:37:14.632Z,96790.46
2018-05-15T09:39:43.421Z,96790.83
2018-05-15T09:42:12.186Z,96795.23
2018-05-15T09:44:40.941Z,96793.28
2018-05-15T09:47:09.707Z,96798.08
2018-05-15T09:49:38.480Z,96799.41
2018-05-15T09:52:07.232Z,96793.26
2018-05-15T09:54:35.977Z,96796.22
2018-05-15T09:57:04.737Z,96800.87
2018-05-15T09:59:33.652Z,96813.99
2018-05-15T10:02:02.452Z,96803.70
2018-05-15T10:04:31.335Z,96808.56
2018-05-15T10:07:00.204Z,96811.24
2018-05-15T10:09:29.091Z,96814.08
2018-05-15T10:11:57.937Z,96818.63
2018-05-15T10:14:26.755Z,96818.73
2018-05-15T10:16:55.564Z,96825.27
2018-05-15T10:19:24.345Z,96830.16
2018-05-15T10:21:53.104Z,96827.14
2018-05-15T10:24:21.976Z,96839.73
2018-05-15T10:26:50.771Z,96831.17
2018-05-15T10:29:19.524Z,96830.58
2018-05-15T10:31:48.305Z,96831.85
2018-05-15T10:34:17.073Z,96834.22
2018-05-15T10:36:46.246Z,96843.81
2018-05-15T10:39:14.916Z,96843.75
2018-05-15T10:41:43.726Z,96844.44
2018-05-15T10:44:12.483Z,96845.11
2018-05-15T10:46:41.402Z,96852.46
2018-05-15T10:49:10.219Z,96845.13
2018-05-15T10:51:39.005Z,96847.09
2018-05-15T10:54:07.791Z,96851.08
2018-05-15T10:56:36.580Z,96851.88
2018-05-15T10:59:06.113Z,96857.16
2018-05-15T11:01:34.899Z,96855.30
2018-05-15T11:04:03.699Z,96853.05
2018-05-15T11:06:32.465Z,96849.57
2018-05-15T11:09:01.257Z,96853.98
2018-05-15T11:11:30.801Z,96856.09
2018-05-15T11:13:59.717Z,96861.12
2018-05-15T11:16:28.544Z,96865.15
2018-05-15T11:18:58.101Z,96867.63
2018-05-15T11:21:38.712Z,96863.12
2018-05-15T11:37:37.539Z,96893.09
2018-05-15T11:40:06.387Z,96897.92
2018-05-15T11:42:36.526Z,96898.47
2018-05-15T11:45:05.302Z,96907.64
2018-05-15T11:47:34.958Z,96911.27
2018-05-15T11:50:06.780Z,96910.63
2018-05-15T11:52:35.690Z,96913.25
2018-05-15T11:55:04.236Z,96915.86
2018-05-15T11:57:33.813Z,96920.02
2018-05-15T12:00:02.697Z,96916.66
2018-05-15T12:02:32.263Z,96922.74
2018-05-15T12:05:00.988Z,96935.02
2018-05-15T12:07:29.782Z,96933.98
2018-05-15T12:09:58.535Z,96932.00
2018-05-15T12:12:27.348Z,96940.20
2018-05-15T12:14:56.759Z,96947.36
2018-05-15T12:17:25.567Z,96938.29
2018-05-15T12:19:54.959Z,96943.70
2018-05-15T12:22:23.730Z,96950.54
2018-05-15T12:24:53.681Z,96956.67
2018-05-15T12:27:22.458Z,96958.56
2018-05-15T12:29:52.446Z,96957.33
2018-05-15T12:32:21.953Z,96965.05
2018-05-15T12:34:50.738Z,96961.46
2018-05-15T12:37:19.535Z,96962.89
2018-05-15T12:39:49.515Z,96962.39
2018-05-15T12:42:18.281Z,96962.39
2018-05-15T12:44:47.035Z,96967.30
2018-05-15T12:47:17.566Z,96968.58
2018-05-15T12:49:47.020Z,96965.34
2018-05-15T12:52:15.806Z,96970.16
2018-05-15T12:54:44.602Z,96967.30
2018-05-15T12:57:13.491Z,96975.47
2018-05-15T12:59:42.246Z,96974.64
2018-05-15T13:02:11.032Z,96968.53
2018-05-15T13:04:39.823Z,96969.01
2018-05-15T13:07:08.577Z,96967.80
2018-05-15T13:09:37.330Z,96961.77
2018-05-15T13:12:06.873Z,96961.81
2018-05-15T13:14:35.626Z,96960.44
2018-05-15T13:17:05.129Z,96964.12
2018-05-15T13:19:37.366Z,96965.42
2018-05-15T13:22:07.667Z,96965.45
2018-05-15T13:24:36.729Z,96960.46
2018-05-15T13:27:06.147Z,96958.03
2018-05-15T13:29:35.658Z,96957.96
2018-05-15T13:32:04.451Z,96962.25
2018-05-15T13:34:33.210Z,96966.17
2018-05-15T13:37:02.761Z,96964.88
2018-05-15T13:39:32.620Z,96962.19
2018-05-15T13:42:01.394Z,96958.64
2018-05-15T13:44:30.187Z,96959.77
2018-05-15T13:46:58.945Z,96960.81
2018-05-15T13:49:27.803Z,96961.47
2018-05-15T13:51:57.405Z,96966.67
2018-05-15T13:54:26.514Z,96966.27
2018-05-15T13:56:55.293Z,96971.79
2018-05-15T13:59:24.053Z,96967.94
2018-05-15T14:01:52.919Z,96968.70
2018-05-15T14:04:22.117Z,96969.66
2018-05-15T14:06:51.674Z,96962.06
2018-05-15T14:09:20.439Z,96970.14
2018-05-15T14:11:49.208Z,96967.78
2018-05-15T14:14:18.058Z,96972.62
2018-05-15T14:16:47.447Z,96966.19
2018-05-15T14:19:18.079Z,96978.03
2018-05-15T14:21:47.476Z,96973.98
2018-05-15T14:24:18.072Z,96971.80
2018-05-15T14:26:47.535Z,96978.24
2018-05-15T14:29:17.376Z,96977.95
2018-05-15T14:31:46.124Z,96977.98
2018-05-15T14:34:14.912Z,96975.91
2018-05-15T14:36:43.685Z,96974.88
2018-05-15T14:39:12.444Z,96971.38
2018-05-15T14:41:53.538Z,96969.36
2018-05-15T14:44:22.297Z,96971.34
2018-05-15T14:46:51.135Z,96971.14
2018-05-15T14:49:19.921Z,96959.34
2018-05-15T14:51:48.692Z,96956.56
2018-05-15T14:54:17.649Z,96948.48
2018-05-15T14:56:47.530Z,96951.09
2018-05-15T14:59:18.127Z,96956.69
2018-05-15T15:01:48.457Z,96956.34
2018-05-15T15:04:24.445Z,96959.27
2018-05-15T15:06:59.608Z,96957.41
2018-05-15T15:09:36.887Z,96952.87
2018-05-15T15:12:09.504Z,96950.00
2018-05-15T15:14:44.479Z,96955.98
2018-05-15T15:17:18.367Z,96952.65
2018-05-15T15:19:52.994Z,96952.27
2018-05-15T15:22:25.879Z,96948.74
2018-05-15T15:24:59.282Z,96944.67
2018-05-15T15:27:31.111Z,96939.33
2018-05-15T15:30:03.058Z,96939.56
2018-05-15T15:32:38.688Z,96946.66
2018-05-15T15:35:13.151Z,96936.64
2018-05-15T15:37:48.137Z,96937.32
2018-05-15T15:40:24.446Z,96940.03
2018-05-15T15:43:01.320Z,96939.39
2018-05-15T15:45:36.519Z,96937.07
2018-05-15T15:48:09.068Z,96934.54
2018-05-15T15:53:26.165Z,96931.42
2018-05-15T15:56:03.102Z,96925.17
2018-05-15T15:58:37.117Z,96922.74
2018-05-15T16:01:16.658Z,96924.16
2018-05-15T16:03:48.209Z,96922.06
2018-05-15T16:06:22.424Z,96914.99
2018-05-15T16:08:58.398Z,96915.13
2018-05-15T16:11:30.754Z,96915.74
2018-05-15T16:14:07.787Z,96919.60
2018-05-15T16:16:43.658Z,96920.08
2018-05-15T16:19:15.965Z,96916.45
2018-05-15T16:21:52.996Z,96905.22
2018-05-15T16:24:27.518Z,96906.33
2018-05-15T16:26:59.859Z,96900.17
2018-05-15T16:29:36.136Z,96901.86
2018-05-15T16:32:11.863Z,96888.73
2018-05-15T16:34:48.716Z,96891.06
2018-05-15T16:37:23.999Z,96893.33
2018-05-15T16:39:56.595Z,96891.78
2018-05-15T16:42:36.265Z,96895.98
2018-05-15T16:45:10.237Z,96899.30
2018-05-15T16:47:45.660Z,96891.64
2018-05-15T16:50:21.774Z,96892.52
2018-05-15T16:52:55.879Z,96902.90
2018-05-15T16:55:28.945Z,96906.92
2018-05-15T16:58:02.210Z,96903.96
2018-05-15T17:00:40.085Z,96906.92
2018-05-15T17:03:12.635Z,96912.75
2018-05-15T17:05:45.993Z,96908.83
2018-05-15T17:08:29.646Z,96911.95
2018-05-15T17:11:02.667Z,96908.92
2018-05-15T17:13:37.748Z,96907.48
2018-05-15T17:16:13.104Z,96904.16
2018-05-15T17:18:51.611Z,96905.32
2018-05-15T17:21:24.896Z,96896.67
2018-05-15T17:24:01.016Z,96898.27
2018-05-15T17:26:37.156Z,96902.42
2018-05-15T17:29:11.654Z,96904.82
2018-05-15T17:31:50.386Z,96908.69
2018-05-15T17:34:25.048Z,96911.33
2018-05-15T17:36:56.762Z,96906.52
2018-05-15T17:39:34.770Z,96907.17
2018-05-15T17:42:08.717Z,96913.11
2018-05-15T17:44:40.834Z,96912.91
2018-05-15T17:47:21.567Z,96913.81
2018-05-15T17:49:55.718Z,96907.39
2018-05-15T17:52:30.186Z,96912.24
2018-05-15T17:55:03.340Z,96910.53
2018-05-15T17:57:36.843Z,96910.41
2018-05-15T18:00:11.963Z,96918.27
2018-05-15T18:02:47.979Z,96916.61
2018-05-15T18:05:21.821Z,96913.45
2018-05-15T18:07:57.499Z,96924.27
2018-05-15T18:10:35.258Z,96921.19
2018-05-15T18:13:15.076Z,96927.88
2018-05-15T18:15:50.583Z,96927.11
2018-05-15T18:18:30.126Z,96931.08
2018-05-15T18:21:02.563Z,96937.84
2018-05-15T18:23:38.284Z,96936.84
2018-05-15T18:26:13.556Z,96943.91
2018-05-15T18:28:45.512Z,96944.22
2018-05-15T18:31:22.870Z,96947.89
2018-05-15T18:33:57.967Z,96946.25
2018-05-15T18:36:33.791Z,96947.28
2018-05-15T18:39:08.679Z,96945.71
2018-05-15T18:41:42.811Z,96945.64
2018-05-15T18:44:17.964Z,96952.28
2018-05-15T18:46:52.280Z,96953.67
2018-05-15T18:49:26.491Z,96953.67
2018-05-15T18:51:59.845Z,96951.22
2018-05-15T18:54:38.606Z,96956.21
2018-05-15T18:57:15.046Z,96949.48
2018-05-15T18:59:51.905Z,96950.63
2018-05-15T19:02:27.633Z,96951.55
2018-05-15T19:05:04.455Z,96955.25
2018-05-15T19:07:40.513Z,96957.72
2018-05-15T19:10:19.096Z,96956.67
2018-05-15T19:12:52.389Z,96964.00
2018-05-15T19:15:25.130Z,96965.78
2018-05-15T19:18:00.094Z,96963.46
2018-05-15T19:20:34.111Z,96960.73
2018-05-15T19:23:13.133Z,96962.09
2018-05-15T19:25:46.178Z,96967.45
2018-05-15T19:28:22.576Z,96968.29
2018-05-15T19:31:13.192Z,96970.52
2018-05-15T19:33:52.511Z,96972.31
2018-05-15T19:36:31.467Z,96973.25
2018-05-15T19:39:08.425Z,96973.66
2018-05-15T19:41:38.901Z,96977.91
2018-05-15T19:44:14.844Z,96975.02
2018-05-15T19:46:54.309Z,96979.21
2018-05-15T19:49:27.901Z,96985.59
2018-05-15T19:52:05.176Z,96981.41
2018-05-15T19:54:38.615Z,96981.17
2018-05-15T19:57:10.359Z,96984.98
2018-05-15T19:59:45.104Z,96989.58
2018-05-15T20:02:19.345Z,96987.48
2018-05-15T20:04:55.054Z,96987.07
2018-05-15T20:07:25.857Z,96992.13
2018-05-15T20:09:54.628Z,96986.79
2018-05-15T20:12:23.416Z,96986.14
2018-05-15T20:14:52.186Z,96979.61
2018-05-15T20:17:20.952Z,96981.67
2018-05-15T20:19:50.487Z,96987.62
2018-05-15T20:22:24.972Z,96978.75
2018-05-15T20:24:58.974Z,96978.88
2018-05-15T20:27:35.565Z,96977.94
2018-05-15T20:30:13.869Z,96977.30
2018-05-15T20:35:28.250Z,96981.52
2018-05-15T20:38:02.768Z,96979.88
2018-05-15T20:40:34.117Z,96977.40
2018-05-15T20:43:11.275Z,96978.41
2018-05-15T20:45:44.392Z,96969.99
2018-05-15T20:48:18.311Z,96972.88
2018-05-15T20:50:51.690Z,96975.72
2018-05-15T20:53:27.608Z,96978.52
2018-05-15T20:56:02.319Z,96975.80
2018-05-15T20:58:42.460Z,96972.85
2018-05-15T21:01:20.259Z,96979.09
2018-05-15T21:03:57.936Z,96970.50
2018-05-15T21:06:30.712Z,96972.02
2018-05-15T21:09:02.126Z,96968.86
2018-05-15T21:11:34.956Z,96971.03
2018-05-15T21:14:09.527Z,96970.91
2018-05-15T21:16:40.725Z,96966.97
2018-05-15T21:19:16.416Z,96969.69
2018-05-15T21:21:52.640Z,96960.02
2018-05-15T21:24:28.661Z,96970.47
2018-05-15T21:27:03.629Z,96967.05
2018-05-15T21:29:38.457Z,96969.52
2018-05-15T21:32:15.604Z,96969.81
2018-05-15T21:34:47.917Z,96966.70
2018-05-15T21:37:22.541Z,96971.27
2018-05-15T21:40:01.399Z,96963.08
2018-05-15T21:42:38.542Z,96966.48
2018-05-15T21:45:11.664Z,96963.77
2018-05-15T21:47:48.645Z,96973.73
2018-05-15T21:50:21.851Z,96974.30
2018-05-15T21:52:53.866Z,96980.10
2018-05-15T21:55:27.971Z,96979.56
2018-05-15T21:58:02.728Z,96980.37
2018-05-15T22:00:36.377Z,96981.59
2018-05-15T22:03:11.045Z,96983.70
2018-05-15T22:05:43.474Z,96979.03
2018-05-15T22:08:19.121Z,96978.64
2018-05-15T22:10:56.130Z,96981.72
2018-05-15T22:13:42.956Z,96983.73
2018-05-15T22:16:32.018Z,96985.80
2018-05-15T22:19:20.293Z,96993.55
2018-05-15T22:22:09.059Z,96995.92
2018-05-15T22:24:45.999Z,96997.67
2018-05-15T22:27:21.173Z,96997.28
2018-05-15T22:29:54.968Z,96998.19
2018-05-15T22:32:31.043Z,97001.12
2018-05-15T22:35:09.019Z,97002.12
2018-05-15T22:37:41.304Z,97009.24
2018-05-15T22:40:17.427Z,97005.10
2018-05-15T22:42:53.847Z,97006.87
2018-05-15T22:45:29.468Z,97008.32
2018-05-15T22:48:02.012Z,97000.45
2018-05-15T22:50:34.899Z,97001.44
2018-05-15T22:53:09.465Z,97000.09
2018-05-15T22:55:43.239Z,96994.72
2018-05-15T22:58:17.910Z,96980.38
2018-05-15T23:00:50.691Z,96981.91
2018-05-15T23:03:21.119Z,96976.17
2018-05-15T23:05:55.081Z,96983.19
2018-05-15T23:08:28.916Z,96981.06
2018-05-15T23:11:00.806Z,96973.41
2018-05-15T23:13:34.851Z,96978.20
2018-05-15T23:16:06.241Z,96973.16
2018-05-15T23:18:39.193Z,96970.54
2018-05-15T23:21:15.363Z,96974.53
2018-05-15T23:23:47.336Z,96969.00
2018-05-15T23:26:19.852Z,96967.17
2018-05-15T23:28:53.922Z,96970.78
2018-05-15T23:31:27.839Z,96971.12
2018-05-15T23:34:02.519Z,96970.89
2018-05-15T23:36:36.402Z,96971.23
2018-05-15T23:39:09.641Z,96968.43
2018-05-15T23:41:46.794Z,96976.47
2018-05-15T23:44:19.738Z,96976.86
2018-05-15T23:46:51.438Z,96974.46
2018-05-15T23:49:26.524Z,96979.78
2018-05-15T23:54:36.999Z,96981.08
2018-05-15T23:57:09.978Z,96985.95
2018-05-15T23:59:42.751Z,96988.33
